LOWL/LNZ METAR and TAF weather

Enter ICAO airport designator
Station Type Date Time Source
LOWL METAR 2020/09/19 05:20 UTC NOAA

LOWL 190520Z 10007KT CAVOK 09/06 Q1021 NOSIG


Station Type Date Time Source
LOWL Decoded METAR 2020/09/19 05:20 UTC NOAA

Linz / Hoersching-Flughafen, Austria (LOWL) 48-14N 014-11E 313M
Sep 19, 2020 - 01:20 AM EDT / 2020.09.19 0520 UTC
Wind: from the E (100 degrees) at 8 MPH (7 KT):0
Visibility: greater than 7 mile(s):0
Temperature: 48 F (9 C)
Dew Point: 42 F (6 C)
Relative Humidity: 81%
Pressure (altimeter): 30.15 in. Hg (1021 hPa)
ob: LOWL 190520Z 10007KT CAVOK 09/06 Q1021 NOSIG
cycle: 5

Station Type Date Time Source
LOWL TAF 2020/09/19 06:22 UTC NOAA

TAF LOWL 190515Z 1906/2006 10010KT CAVOK TX21/1915Z TN08/2005Z
BECMG 1917/1919 08005KT

Example: see airport list